Hlavní strana
METAR-TAF:

METAR-TAF

Letiště :

Kalmar, Švédsko

zeměpisná šířka: 56-44N, zeměpisná délka: 016-18E, výška: 16 m

Aktuální stav počasí

Zpráva byla vytvořena před 44 minutami, v 12:20 UTC
Západní vítr 11 kt
Teplota 12°C
Vlhkost vzduchu 40%
Tlak 1028 hPa
Viditelnost 10 km a více
Žádná oblačnost pod 1500 m, nevyskytují se cumulonimby.

METAR: ESMQ 011220Z 26011KT CAVOK 12/M01 Q1028

Čas: 14:04 (13:04 UTC)

Předpověď počasí

Zpráva byla vytvořena před 1 hodinou a 34 minutami, v 11:30 UTC
Předpověď platná od 01 v 12 UTC do 01 v 19 UTC
Západní vítr 10 kt
Viditelnost 10 km a více
Žádná oblačnost pod 1500 m, nevyskytují se cumulonimby.

TAF: ESMQ 011130Z 0112/0119 28010KT CAVOK

Stav a předpovědi počasí z více než 4 000 letišť (zprávy METAR a TAF).

Červené a žluté tečky na mapě představují dostupné meteorologické stanice.

Když kurzor umístíte na tečku, zobrazí se název stanice.

Pak kliknutím zobrazíte stav a předpověď počasí.

Chcete-li změnit mapu, kliknutím na zelené tlačítko se znaménkem +mapu přiblížíte, kliknutím na zelené tlačítko se znaménkem – mapu oddálíte a kliknutím na zelené šipky přejdete na sousední mapy.


METAR-TAF: